sensor_id;sensor_type;location;lat;lon;timestamp;temperature;humidity
3418;DHT22;68007;51.312;12.372;2023-07-13T00:00:52;26.40;48.20
3418;DHT22;68007;51.312;12.372;2023-07-13T00:03:20;26.30;48.20
3418;DHT22;68007;51.312;12.372;2023-07-13T00:05:52;26.30;48.30
3418;DHT22;68007;51.312;12.372;2023-07-13T00:08:24;26.30;48.30
3418;DHT22;68007;51.312;12.372;2023-07-13T00:10:52;26.30;48.30
3418;DHT22;68007;51.312;12.372;2023-07-13T00:13:22;26.40;48.40
3418;DHT22;68007;51.312;12.372;2023-07-13T00:15:49;26.30;48.60
3418;DHT22;68007;51.312;12.372;2023-07-13T00:18:17;26.30;48.90
3418;DHT22;68007;51.312;12.372;2023-07-13T00:20:44;26.30;49.00
3418;DHT22;68007;51.312;12.372;2023-07-13T00:23:12;26.30;48.80
3418;DHT22;68007;51.312;12.372;2023-07-13T00:25:39;26.30;49.20
3418;DHT22;68007;51.312;12.372;2023-07-13T00:28:07;26.30;50.00
3418;DHT22;68007;51.312;12.372;2023-07-13T00:30:36;26.20;49.10
3418;DHT22;68007;51.312;12.372;2023-07-13T00:33:03;26.20;48.80
3418;DHT22;68007;51.312;12.372;2023-07-13T00:35:31;26.20;48.80
3418;DHT22;68007;51.312;12.372;2023-07-13T00:37:59;26.10;48.50
3418;DHT22;68007;51.312;12.372;2023-07-13T00:40:27;26.10;48.40
3418;DHT22;68007;51.312;12.372;2023-07-13T00:42:57;26.00;48.50
3418;DHT22;68007;51.312;12.372;2023-07-13T00:46:09;26.10;48.60
3418;DHT22;68007;51.312;12.372;2023-07-13T00:48:38;26.10;48.60
3418;DHT22;68007;51.312;12.372;2023-07-13T00:51:06;26.00;49.00
3418;DHT22;68007;51.312;12.372;2023-07-13T00:53:34;26.00;49.20
3418;DHT22;68007;51.312;12.372;2023-07-13T00:56:03;26.00;49.60
3418;DHT22;68007;51.312;12.372;2023-07-13T00:58:31;26.00;49.20
3418;DHT22;68007;51.312;12.372;2023-07-13T01:00:59;26.00;49.00
3418;DHT22;68007;51.312;12.372;2023-07-13T01:03:27;26.00;48.80
3418;DHT22;68007;51.312;12.372;2023-07-13T01:05:55;26.00;49.60
3418;DHT22;68007;51.312;12.372;2023-07-13T01:08:23;25.90;50.00
3418;DHT22;68007;51.312;12.372;2023-07-13T01:10:52;25.90;50.10
3418;DHT22;68007;51.312;12.372;2023-07-13T01:13:20;25.80;49.30
3418;DHT22;68007;51.312;12.372;2023-07-13T01:15:49;25.90;48.70
3418;DHT22;68007;51.312;12.372;2023-07-13T01:18:20;25.90;48.40
3418;DHT22;68007;51.312;12.372;2023-07-13T01:20:53;25.80;48.50
3418;DHT22;68007;51.312;12.372;2023-07-13T01:23:21;25.80;48.70
3418;DHT22;68007;51.312;12.372;2023-07-13T01:25:49;25.60;48.80
3418;DHT22;68007;51.312;12.372;2023-07-13T01:28:17;25.60;48.90
3418;DHT22;68007;51.312;12.372;2023-07-13T01:30:46;25.50;49.00
3418;DHT22;68007;51.312;12.372;2023-07-13T01:33:15;25.50;48.90
3418;DHT22;68007;51.312;12.372;2023-07-13T01:35:43;25.50;49.10
3418;DHT22;68007;51.312;12.372;2023-07-13T01:38:17;25.40;49.30
3418;DHT22;68007;51.312;12.372;2023-07-13T01:40:45;25.30;49.50
3418;DHT22;68007;51.312;12.372;2023-07-13T01:43:13;25.30;49.30
3418;DHT22;68007;51.312;12.372;2023-07-13T01:45:40;25.30;50.00
3418;DHT22;68007;51.312;12.372;2023-07-13T01:48:10;25.20;49.40
3418;DHT22;68007;51.312;12.372;2023-07-13T01:50:37;25.30;49.50
3418;DHT22;68007;51.312;12.372;2023-07-13T01:53:05;25.30;49.40
3418;DHT22;68007;51.312;12.372;2023-07-13T01:55:35;25.30;49.30
3418;DHT22;68007;51.312;12.372;2023-07-13T01:58:04;25.30;49.20
3418;DHT22;68007;51.312;12.372;2023-07-13T02:00:31;25.30;49.20
3418;DHT22;68007;51.312;12.372;2023-07-13T02:02:59;25.30;49.50
3418;DHT22;68007;51.312;12.372;2023-07-13T02:05:26;25.20;49.40
3418;DHT22;68007;51.312;12.372;2023-07-13T02:07:54;25.20;49.40
3418;DHT22;68007;51.312;12.372;2023-07-13T02:10:21;25.10;49.60
3418;DHT22;68007;51.312;12.372;2023-07-13T02:12:50;25.20;50.30
3418;DHT22;68007;51.312;12.372;2023-07-13T02:15:18;25.10;49.70
3418;DHT22;68007;51.312;12.372;2023-07-13T02:17:45;25.10;49.70
3418;DHT22;68007;51.312;12.372;2023-07-13T02:20:13;25.10;49.60
3418;DHT22;68007;51.312;12.372;2023-07-13T02:22:40;25.10;50.30
3418;DHT22;68007;51.312;12.372;2023-07-13T02:25:08;25.10;49.90
3418;DHT22;68007;51.312;12.372;2023-07-13T02:27:36;25.10;49.80
3418;DHT22;68007;51.312;12.372;2023-07-13T02:30:06;25.10;49.90
3418;DHT22;68007;51.312;12.372;2023-07-13T02:32:34;25.10;50.00
3418;DHT22;68007;51.312;12.372;2023-07-13T02:35:01;25.00;50.20
3418;DHT22;68007;51.312;12.372;2023-07-13T02:37:29;25.00;50.30
3418;DHT22;68007;51.312;12.372;2023-07-13T02:39:57;24.90;50.50
3418;DHT22;68007;51.312;12.372;2023-07-13T02:42:24;24.90;50.60
3418;DHT22;68007;51.312;12.372;2023-07-13T02:44:52;24.80;50.80
3418;DHT22;68007;51.312;12.372;2023-07-13T02:47:21;24.70;51.00
3418;DHT22;68007;51.312;12.372;2023-07-13T02:49:48;24.70;50.90
3418;DHT22;68007;51.312;12.372;2023-07-13T02:52:16;24.60;51.30
3418;DHT22;68007;51.312;12.372;2023-07-13T02:54:44;24.50;52.00
3418;DHT22;68007;51.312;12.372;2023-07-13T02:57:11;24.50;51.60
3418;DHT22;68007;51.312;12.372;2023-07-13T02:59:39;24.50;51.70
3418;DHT22;68007;51.312;12.372;2023-07-13T03:02:06;24.50;51.90
3418;DHT22;68007;51.312;12.372;2023-07-13T03:04:36;24.40;51.90
3418;DHT22;68007;51.312;12.372;2023-07-13T03:07:04;24.50;52.10
3418;DHT22;68007;51.312;12.372;2023-07-13T03:09:33;24.40;51.80
3418;DHT22;68007;51.312;12.372;2023-07-13T03:12:01;24.40;52.00
3418;DHT22;68007;51.312;12.372;2023-07-13T03:14:28;24.30;52.40
3418;DHT22;68007;51.312;12.372;2023-07-13T03:16:56;24.30;52.30
3418;DHT22;68007;51.312;12.372;2023-07-13T03:19:24;24.30;52.40
3418;DHT22;68007;51.312;12.372;2023-07-13T03:21:52;24.20;52.70
3418;DHT22;68007;51.312;12.372;2023-07-13T03:24:20;24.20;53.40
3418;DHT22;68007;51.312;12.372;2023-07-13T03:26:49;24.20;52.90
3418;DHT22;68007;51.312;12.372;2023-07-13T03:29:17;24.30;52.70
3418;DHT22;68007;51.312;12.372;2023-07-13T03:31:44;24.30;52.90
3418;DHT22;68007;51.312;12.372;2023-07-13T03:34:12;24.30;52.90
3418;DHT22;68007;51.312;12.372;2023-07-13T03:36:39;24.20;53.10
3418;DHT22;68007;51.312;12.372;2023-07-13T03:39:09;24.20;53.10
3418;DHT22;68007;51.312;12.372;2023-07-13T03:41:37;24.20;53.50
3418;DHT22;68007;51.312;12.372;2023-07-13T03:44:05;24.10;54.10
3418;DHT22;68007;51.312;12.372;2023-07-13T03:46:32;24.10;53.30
3418;DHT22;68007;51.312;12.372;2023-07-13T03:49:01;24.20;53.50
3418;DHT22;68007;51.312;12.372;2023-07-13T03:51:29;24.10;53.70
3418;DHT22;68007;51.312;12.372;2023-07-13T03:53:57;24.10;53.80
3418;DHT22;68007;51.312;12.372;2023-07-13T03:56:25;24.10;53.80
3418;DHT22;68007;51.312;12.372;2023-07-13T03:58:53;24.10;53.90
3418;DHT22;68007;51.312;12.372;2023-07-13T04:01:22;23.90;54.30
3418;DHT22;68007;51.312;12.372;2023-07-13T04:03:51;23.80;54.60
3418;DHT22;68007;51.312;12.372;2023-07-13T04:06:21;23.80;54.70
3418;DHT22;68007;51.312;12.372;2023-07-13T04:08:52;23.90;54.50
3418;DHT22;68007;51.312;12.372;2023-07-13T04:11:21;23.90;54.50
3418;DHT22;68007;51.312;12.372;2023-07-13T04:13:50;23.90;54.60
3418;DHT22;68007;51.312;12.372;2023-07-13T04:16:19;23.90;54.60
3418;DHT22;68007;51.312;12.372;2023-07-13T04:18:47;23.90;54.80
3418;DHT22;68007;51.312;12.372;2023-07-13T04:21:16;23.90;55.00
3418;DHT22;68007;51.312;12.372;2023-07-13T04:23:44;23.80;55.00
3418;DHT22;68007;51.312;12.372;2023-07-13T04:26:11;23.80;55.00
3418;DHT22;68007;51.312;12.372;2023-07-13T04:28:39;23.80;55.30
3418;DHT22;68007;51.312;12.372;2023-07-13T04:31:08;23.70;55.50
3418;DHT22;68007;51.312;12.372;2023-07-13T04:33:35;23.70;55.70
3418;DHT22;68007;51.312;12.372;2023-07-13T04:36:03;23.70;55.80
3418;DHT22;68007;51.312;12.372;2023-07-13T04:38:32;23.60;56.00
3418;DHT22;68007;51.312;12.372;2023-07-13T04:41:01;23.60;56.10
3418;DHT22;68007;51.312;12.372;2023-07-13T04:43:30;23.70;55.90
3418;DHT22;68007;51.312;12.372;2023-07-13T04:46:03;23.70;56.20
3418;DHT22;68007;51.312;12.372;2023-07-13T04:48:33;23.70;56.00
3418;DHT22;68007;51.312;12.372;2023-07-13T04:51:01;23.60;56.40
3418;DHT22;68007;51.312;12.372;2023-07-13T04:53:30;23.60;56.50
3418;DHT22;68007;51.312;12.372;2023-07-13T04:55:58;23.60;56.50
3418;DHT22;68007;51.312;12.372;2023-07-13T04:58:26;23.60;56.60
3418;DHT22;68007;51.312;12.372;2023-07-13T05:00:55;23.60;56.60
3418;DHT22;68007;51.312;12.372;2023-07-13T05:03:26;23.60;56.70
3418;DHT22;68007;51.312;12.372;2023-07-13T05:06:00;23.60;56.90
3418;DHT22;68007;51.312;12.372;2023-07-13T05:08:28;23.60;56.90
3418;DHT22;68007;51.312;12.372;2023-07-13T05:10:55;23.60;56.70
3418;DHT22;68007;51.312;12.372;2023-07-13T05:13:23;23.50;57.00
3418;DHT22;68007;51.312;12.372;2023-07-13T05:15:56;23.50;57.00
3418;DHT22;68007;51.312;12.372;2023-07-13T05:18:24;23.50;57.20
3418;DHT22;68007;51.312;12.372;2023-07-13T05:20:59;23.60;57.00
3418;DHT22;68007;51.312;12.372;2023-07-13T05:23:27;23.60;56.90
3418;DHT22;68007;51.312;12.372;2023-07-13T05:25:54;23.60;57.00
3418;DHT22;68007;51.312;12.372;2023-07-13T05:28:22;23.60;57.00
3418;DHT22;68007;51.312;12.372;2023-07-13T05:30:50;23.60;56.90
3418;DHT22;68007;51.312;12.372;2023-07-13T05:33:18;23.60;56.70
3418;DHT22;68007;51.312;12.372;2023-07-13T05:35:46;23.60;56.60
3418;DHT22;68007;51.312;12.372;2023-07-13T05:38:15;23.60;57.50
3418;DHT22;68007;51.312;12.372;2023-07-13T05:40:43;23.70;57.00
3418;DHT22;68007;51.312;12.372;2023-07-13T05:43:10;23.70;57.10
3418;DHT22;68007;51.312;12.372;2023-07-13T05:45:38;23.70;56.90
3418;DHT22;68007;51.312;12.372;2023-07-13T05:48:06;23.70;56.80
3418;DHT22;68007;51.312;12.372;2023-07-13T05:50:33;23.70;56.80
3418;DHT22;68007;51.312;12.372;2023-07-13T05:53:01;23.70;56.70
3418;DHT22;68007;51.312;12.372;2023-07-13T05:55:30;23.70;56.60
3418;DHT22;68007;51.312;12.372;2023-07-13T05:57:57;23.70;56.70
3418;DHT22;68007;51.312;12.372;2023-07-13T06:00:25;23.70;56.60
3418;DHT22;68007;51.312;12.372;2023-07-13T06:02:53;23.70;56.40
3418;DHT22;68007;51.312;12.372;2023-07-13T06:05:20;23.70;56.70
3418;DHT22;68007;51.312;12.372;2023-07-13T06:07:48;23.70;56.70
3418;DHT22;68007;51.312;12.372;2023-07-13T06:10:15;23.70;56.30
3418;DHT22;68007;51.312;12.372;2023-07-13T06:12:44;23.80;56.50
3418;DHT22;68007;51.312;12.372;2023-07-13T06:15:12;23.80;56.10
3418;DHT22;68007;51.312;12.372;2023-07-13T06:17:39;23.60;56.60
3418;DHT22;68007;51.312;12.372;2023-07-13T06:20:08;23.70;56.60
3418;DHT22;68007;51.312;12.372;2023-07-13T06:22:35;23.60;56.80
3418;DHT22;68007;51.312;12.372;2023-07-13T06:25:03;23.60;56.60
3418;DHT22;68007;51.312;12.372;2023-07-13T06:27:30;23.70;56.90
3418;DHT22;68007;51.312;12.372;2023-07-13T06:29:59;23.70;56.60
3418;DHT22;68007;51.312;12.372;2023-07-13T06:32:27;23.70;56.40
3418;DHT22;68007;51.312;12.372;2023-07-13T06:34:54;23.70;56.10
3418;DHT22;68007;51.312;12.372;2023-07-13T06:37:22;23.70;56.00
3418;DHT22;68007;51.312;12.372;2023-07-13T06:39:49;23.60;56.20
3418;DHT22;68007;51.312;12.372;2023-07-13T06:42:17;23.70;56.20
3418;DHT22;68007;51.312;12.372;2023-07-13T06:44:44;23.70;56.10
3418;DHT22;68007;51.312;12.372;2023-07-13T06:47:13;23.70;56.60
3418;DHT22;68007;51.312;12.372;2023-07-13T06:49:41;23.50;55.20
3418;DHT22;68007;51.312;12.372;2023-07-13T06:52:08;23.50;55.50
3418;DHT22;68007;51.312;12.372;2023-07-13T06:54:36;23.60;55.50
3418;DHT22;68007;51.312;12.372;2023-07-13T06:57:04;23.50;55.30
3418;DHT22;68007;51.312;12.372;2023-07-13T06:59:31;23.60;55.00
3418;DHT22;68007;51.312;12.372;2023-07-13T07:01:59;23.60;55.50
3418;DHT22;68007;51.312;12.372;2023-07-13T07:04:28;23.60;55.40
3418;DHT22;68007;51.312;12.372;2023-07-13T07:06:55;23.50;54.30
3418;DHT22;68007;51.312;12.372;2023-07-13T07:09:23;23.40;54.60
3418;DHT22;68007;51.312;12.372;2023-07-13T07:11:50;23.30;54.80
3418;DHT22;68007;51.312;12.372;2023-07-13T07:14:18;23.20;54.80
3418;DHT22;68007;51.312;12.372;2023-07-13T07:16:45;23.40;54.90
3418;DHT22;68007;51.312;12.372;2023-07-13T07:19:13;23.30;54.90
3418;DHT22;68007;51.312;12.372;2023-07-13T07:21:42;23.20;55.50
3418;DHT22;68007;51.312;12.372;2023-07-13T07:24:09;23.30;55.60
3418;DHT22;68007;51.312;12.372;2023-07-13T07:26:37;23.40;55.60
3418;DHT22;68007;51.312;12.372;2023-07-13T07:29:04;23.40;55.50
3418;DHT22;68007;51.312;12.372;2023-07-13T07:31:32;23.40;55.80
3418;DHT22;68007;51.312;12.372;2023-07-13T07:33:59;23.40;55.70
3418;DHT22;68007;51.312;12.372;2023-07-13T07:36:27;23.50;55.60
3418;DHT22;68007;51.312;12.372;2023-07-13T07:38:56;23.50;55.40
3418;DHT22;68007;51.312;12.372;2023-07-13T07:41:23;23.30;55.40
3418;DHT22;68007;51.312;12.372;2023-07-13T07:43:51;23.30;55.30
3418;DHT22;68007;51.312;12.372;2023-07-13T07:46:18;23.30;54.90
3418;DHT22;68007;51.312;12.372;2023-07-13T07:48:46;23.40;54.50
3418;DHT22;68007;51.312;12.372;2023-07-13T07:51:13;23.40;53.90
3418;DHT22;68007;51.312;12.372;2023-07-13T07:53:41;23.50;53.60
3418;DHT22;68007;51.312;12.372;2023-07-13T07:56:10;23.50;52.70
3418;DHT22;68007;51.312;12.372;2023-07-13T07:58:37;23.40;53.20
3418;DHT22;68007;51.312;12.372;2023-07-13T08:01:06;23.40;53.00
3418;DHT22;68007;51.312;12.372;2023-07-13T08:03:34;23.30;52.60
3418;DHT22;68007;51.312;12.372;2023-07-13T08:06:01;23.50;53.10
3418;DHT22;68007;51.312;12.372;2023-07-13T08:08:29;23.50;52.50
3418;DHT22;68007;51.312;12.372;2023-07-13T08:10:56;23.60;52.80
3418;DHT22;68007;51.312;12.372;2023-07-13T08:13:25;23.50;52.10
3418;DHT22;68007;51.312;12.372;2023-07-13T08:15:53;23.60;52.40
3418;DHT22;68007;51.312;12.372;2023-07-13T08:18:20;23.70;52.70
3418;DHT22;68007;51.312;12.372;2023-07-13T08:20:48;23.50;51.90
3418;DHT22;68007;51.312;12.372;2023-07-13T08:23:15;23.60;52.10
3418;DHT22;68007;51.312;12.372;2023-07-13T08:25:50;23.60;51.80
3418;DHT22;68007;51.312;12.372;2023-07-13T08:28:18;23.70;51.90
3418;DHT22;68007;51.312;12.372;2023-07-13T08:30:48;23.70;51.70
3418;DHT22;68007;51.312;12.372;2023-07-13T08:33:15;23.70;51.80
3418;DHT22;68007;51.312;12.372;2023-07-13T08:35:45;23.60;51.60
3418;DHT22;68007;51.312;12.372;2023-07-13T08:38:13;23.60;52.00
3418;DHT22;68007;51.312;12.372;2023-07-13T08:40:41;23.60;52.10
3418;DHT22;68007;51.312;12.372;2023-07-13T08:43:13;23.70;52.00
3418;DHT22;68007;51.312;12.372;2023-07-13T08:45:44;23.70;52.30
3418;DHT22;68007;51.312;12.372;2023-07-13T08:48:20;23.80;52.50
3418;DHT22;68007;51.312;12.372;2023-07-13T08:50:51;23.80;52.50
3418;DHT22;68007;51.312;12.372;2023-07-13T08:53:21;23.70;52.20
3418;DHT22;68007;51.312;12.372;2023-07-13T08:55:52;23.70;51.90
3418;DHT22;68007;51.312;12.372;2023-07-13T08:58:25;23.60;51.60
3418;DHT22;68007;51.312;12.372;2023-07-13T09:01:01;23.60;52.10
3418;DHT22;68007;51.312;12.372;2023-07-13T09:03:41;23.60;51.60
3418;DHT22;68007;51.312;12.372;2023-07-13T09:06:13;23.70;51.80
3418;DHT22;68007;51.312;12.372;2023-07-13T09:08:49;23.70;52.00
3418;DHT22;68007;51.312;12.372;2023-07-13T09:11:30;23.90;52.10
3418;DHT22;68007;51.312;12.372;2023-07-13T09:14:06;23.90;52.10
3418;DHT22;68007;51.312;12.372;2023-07-13T09:16:41;23.90;51.20
3418;DHT22;68007;51.312;12.372;2023-07-13T09:19:16;23.90;51.00
3418;DHT22;68007;51.312;12.372;2023-07-13T09:21:45;23.90;50.70
3418;DHT22;68007;51.312;12.372;2023-07-13T09:24:29;23.70;50.40
3418;DHT22;68007;51.312;12.372;2023-07-13T09:26:58;23.80;50.90
3418;DHT22;68007;51.312;12.372;2023-07-13T09:29:29;23.80;51.30
3418;DHT22;68007;51.312;12.372;2023-07-13T09:32:02;23.80;50.70
3418;DHT22;68007;51.312;12.372;2023-07-13T09:34:32;23.70;51.00
3418;DHT22;68007;51.312;12.372;2023-07-13T09:37:00;23.80;51.10
3418;DHT22;68007;51.312;12.372;2023-07-13T09:39:30;23.80;51.10
3418;DHT22;68007;51.312;12.372;2023-07-13T09:42:07;23.80;51.10
3418;DHT22;68007;51.312;12.372;2023-07-13T09:44:52;23.90;51.30
3418;DHT22;68007;51.312;12.372;2023-07-13T09:47:21;24.00;50.70
3418;DHT22;68007;51.312;12.372;2023-07-13T09:49:56;24.00;51.00
3418;DHT22;68007;51.312;12.372;2023-07-13T09:52:25;24.00;51.10
3418;DHT22;68007;51.312;12.372;2023-07-13T09:54:54;24.00;50.80
3418;DHT22;68007;51.312;12.372;2023-07-13T09:57:27;24.10;51.20
3418;DHT22;68007;51.312;12.372;2023-07-13T09:59:55;24.10;51.20
3418;DHT22;68007;51.312;12.372;2023-07-13T10:02:30;24.00;50.60
3418;DHT22;68007;51.312;12.372;2023-07-13T10:05:02;23.90;50.40
3418;DHT22;68007;51.312;12.372;2023-07-13T10:07:30;23.90;50.70
3418;DHT22;68007;51.312;12.372;2023-07-13T10:10:00;23.90;50.70
3418;DHT22;68007;51.312;12.372;2023-07-13T10:12:30;23.90;50.70
3418;DHT22;68007;51.312;12.372;2023-07-13T10:15:03;23.90;50.40
3418;DHT22;68007;51.312;12.372;2023-07-13T10:17:35;23.90;50.70
3418;DHT22;68007;51.312;12.372;2023-07-13T10:20:06;23.90;50.90
3418;DHT22;68007;51.312;12.372;2023-07-13T10:22:44;23.90;50.60
3418;DHT22;68007;51.312;12.372;2023-07-13T10:25:17;24.10;50.60
3418;DHT22;68007;51.312;12.372;2023-07-13T10:27:46;24.10;50.60
3418;DHT22;68007;51.312;12.372;2023-07-13T10:30:19;24.20;49.40
3418;DHT22;68007;51.312;12.372;2023-07-13T10:32:47;24.20;48.20
3418;DHT22;68007;51.312;12.372;2023-07-13T10:35:18;24.30;49.00
3418;DHT22;68007;51.312;12.372;2023-07-13T10:37:51;24.40;48.70
3418;DHT22;68007;51.312;12.372;2023-07-13T10:40:23;24.50;50.40
3418;DHT22;68007;51.312;12.372;2023-07-13T10:42:54;24.50;50.80
3418;DHT22;68007;51.312;12.372;2023-07-13T10:45:24;24.60;51.20
3418;DHT22;68007;51.312;12.372;2023-07-13T10:47:53;24.70;50.90
3418;DHT22;68007;51.312;12.372;2023-07-13T10:50:25;24.80;50.50
3418;DHT22;68007;51.312;12.372;2023-07-13T10:52:54;24.80;50.40
3418;DHT22;68007;51.312;12.372;2023-07-13T10:55:31;24.80;49.70
3418;DHT22;68007;51.312;12.372;2023-07-13T10:58:10;24.70;49.20
3418;DHT22;68007;51.312;12.372;2023-07-13T11:00:46;24.70;49.40
3418;DHT22;68007;51.312;12.372;2023-07-13T11:03:17;24.70;48.90
3418;DHT22;68007;51.312;12.372;2023-07-13T11:05:49;24.70;49.10
3418;DHT22;68007;51.312;12.372;2023-07-13T11:08:21;24.70;49.60
3418;DHT22;68007;51.312;12.372;2023-07-13T11:11:00;24.80;48.80
3418;DHT22;68007;51.312;12.372;2023-07-13T11:13:55;24.80;48.20
3418;DHT22;68007;51.312;12.372;2023-07-13T11:16:42;24.80;47.90
3418;DHT22;68007;51.312;12.372;2023-07-13T11:22:23;25.00;47.10
3418;DHT22;68007;51.312;12.372;2023-07-13T11:24:59;25.00;47.50
3418;DHT22;68007;51.312;12.372;2023-07-13T11:27:42;25.10;47.90
3418;DHT22;68007;51.312;12.372;2023-07-13T11:30:25;25.10;47.40
3418;DHT22;68007;51.312;12.372;2023-07-13T11:33:11;25.20;47.30
3418;DHT22;68007;51.312;12.372;2023-07-13T11:35:53;25.20;46.80
3418;DHT22;68007;51.312;12.372;2023-07-13T11:38:30;25.00;46.00
3418;DHT22;68007;51.312;12.372;2023-07-13T11:41:02;25.00;46.50
3418;DHT22;68007;51.312;12.372;2023-07-13T11:43:30;25.00;46.60
3418;DHT22;68007;51.312;12.372;2023-07-13T11:46:12;25.10;47.30
3418;DHT22;68007;51.312;12.372;2023-07-13T11:48:41;25.20;46.70
3418;DHT22;68007;51.312;12.372;2023-07-13T11:51:19;25.20;45.60
3418;DHT22;68007;51.312;12.372;2023-07-13T11:53:50;25.20;45.50
3418;DHT22;68007;51.312;12.372;2023-07-13T11:56:18;25.10;44.30
3418;DHT22;68007;51.312;12.372;2023-07-13T11:58:50;25.20;45.20
3418;DHT22;68007;51.312;12.372;2023-07-13T12:01:21;25.20;45.20
3418;DHT22;68007;51.312;12.372;2023-07-13T12:03:50;25.20;44.20
3418;DHT22;68007;51.312;12.372;2023-07-13T12:06:26;25.30;44.40
3418;DHT22;68007;51.312;12.372;2023-07-13T12:09:00;25.50;44.00
3418;DHT22;68007;51.312;12.372;2023-07-13T12:11:30;25.60;44.40
3418;DHT22;68007;51.312;12.372;2023-07-13T12:13:58;25.70;43.80
3418;DHT22;68007;51.312;12.372;2023-07-13T12:16:30;25.70;43.00
3418;DHT22;68007;51.312;12.372;2023-07-13T12:19:00;25.70;42.90
3418;DHT22;68007;51.312;12.372;2023-07-13T12:21:32;25.80;42.60
3418;DHT22;68007;51.312;12.372;2023-07-13T12:24:03;25.90;42.90
3418;DHT22;68007;51.312;12.372;2023-07-13T12:26:32;25.90;42.60
3418;DHT22;68007;51.312;12.372;2023-07-13T12:29:00;25.90;42.50
3418;DHT22;68007;51.312;12.372;2023-07-13T12:31:34;26.10;42.40
3418;DHT22;68007;51.312;12.372;2023-07-13T12:34:06;26.20;41.90
3418;DHT22;68007;51.312;12.372;2023-07-13T12:36:36;26.00;42.50
3418;DHT22;68007;51.312;12.372;2023-07-13T12:39:13;26.10;41.70
3418;DHT22;68007;51.312;12.372;2023-07-13T12:41:42;26.10;41.90
3418;DHT22;68007;51.312;12.372;2023-07-13T12:44:12;26.20;41.50
3418;DHT22;68007;51.312;12.372;2023-07-13T12:46:54;26.10;40.70
3418;DHT22;68007;51.312;12.372;2023-07-13T12:49:30;26.10;41.00
3418;DHT22;68007;51.312;12.372;2023-07-13T12:52:02;26.20;41.40
3418;DHT22;68007;51.312;12.372;2023-07-13T12:54:31;26.30;42.50
3418;DHT22;68007;51.312;12.372;2023-07-13T12:57:00;26.40;42.00
3418;DHT22;68007;51.312;12.372;2023-07-13T12:59:31;26.40;41.80
3418;DHT22;68007;51.312;12.372;2023-07-13T13:02:09;26.50;41.40
3418;DHT22;68007;51.312;12.372;2023-07-13T13:04:44;26.40;40.80
3418;DHT22;68007;51.312;12.372;2023-07-13T13:07:12;26.50;40.90
3418;DHT22;68007;51.312;12.372;2023-07-13T13:09:41;26.50;40.50
3418;DHT22;68007;51.312;12.372;2023-07-13T13:12:09;26.50;39.90
3418;DHT22;68007;51.312;12.372;2023-07-13T13:14:36;26.50;40.90
3418;DHT22;68007;51.312;12.372;2023-07-13T13:17:15;26.60;41.00
3418;DHT22;68007;51.312;12.372;2023-07-13T13:19:46;26.60;40.90
3418;DHT22;68007;51.312;12.372;2023-07-13T13:22:13;26.70;40.90
3418;DHT22;68007;51.312;12.372;2023-07-13T13:24:42;26.70;40.80
3418;DHT22;68007;51.312;12.372;2023-07-13T13:27:17;26.70;40.30
3418;DHT22;68007;51.312;12.372;2023-07-13T13:29:45;26.60;40.50
3418;DHT22;68007;51.312;12.372;2023-07-13T13:32:13;26.50;39.70
3418;DHT22;68007;51.312;12.372;2023-07-13T13:34:41;26.50;40.10
3418;DHT22;68007;51.312;12.372;2023-07-13T13:37:17;26.60;40.10
3418;DHT22;68007;51.312;12.372;2023-07-13T13:39:47;26.60;40.50
3418;DHT22;68007;51.312;12.372;2023-07-13T13:42:15;26.50;41.00
3418;DHT22;68007;51.312;12.372;2023-07-13T13:44:42;26.50;42.00
3418;DHT22;68007;51.312;12.372;2023-07-13T13:47:28;26.50;41.30
3418;DHT22;68007;51.312;12.372;2023-07-13T13:49:56;26.60;41.00
3418;DHT22;68007;51.312;12.372;2023-07-13T13:52:24;26.60;42.10
3418;DHT22;68007;51.312;12.372;2023-07-13T13:54:53;26.70;42.10
3418;DHT22;68007;51.312;12.372;2023-07-13T13:57:23;26.70;41.40
3418;DHT22;68007;51.312;12.372;2023-07-13T13:59:51;26.70;41.70
3418;DHT22;68007;51.312;12.372;2023-07-13T14:02:23;26.70;42.20
3418;DHT22;68007;51.312;12.372;2023-07-13T14:04:54;26.80;41.80
3418;DHT22;68007;51.312;12.372;2023-07-13T14:07:21;26.80;41.60
3418;DHT22;68007;51.312;12.372;2023-07-13T14:09:49;26.80;41.50
3418;DHT22;68007;51.312;12.372;2023-07-13T14:12:18;26.80;41.40
3418;DHT22;68007;51.312;12.372;2023-07-13T14:14:46;26.70;41.20
3418;DHT22;68007;51.312;12.372;2023-07-13T14:17:20;26.80;41.70
3418;DHT22;68007;51.312;12.372;2023-07-13T14:19:48;26.70;41.70
3418;DHT22;68007;51.312;12.372;2023-07-13T14:22:17;26.70;42.30
3418;DHT22;68007;51.312;12.372;2023-07-13T14:24:45;26.80;42.40
3418;DHT22;68007;51.312;12.372;2023-07-13T14:27:13;26.80;42.50
3418;DHT22;68007;51.312;12.372;2023-07-13T14:29:41;26.80;41.40
3418;DHT22;68007;51.312;12.372;2023-07-13T14:32:10;26.90;41.50
3418;DHT22;68007;51.312;12.372;2023-07-13T14:34:38;26.90;40.70
3418;DHT22;68007;51.312;12.372;2023-07-13T14:37:08;26.80;40.80
3418;DHT22;68007;51.312;12.372;2023-07-13T14:39:39;26.80;41.40
3418;DHT22;68007;51.312;12.372;2023-07-13T14:42:09;26.80;41.60
3418;DHT22;68007;51.312;12.372;2023-07-13T14:44:38;26.70;41.40
3418;DHT22;68007;51.312;12.372;2023-07-13T14:47:07;26.70;41.10
3418;DHT22;68007;51.312;12.372;2023-07-13T14:49:37;26.70;41.60
3418;DHT22;68007;51.312;12.372;2023-07-13T14:52:11;26.80;41.50
3418;DHT22;68007;51.312;12.372;2023-07-13T14:54:40;26.80;40.30
3418;DHT22;68007;51.312;12.372;2023-07-13T14:57:10;26.70;40.00
3418;DHT22;68007;51.312;12.372;2023-07-13T14:59:39;26.70;40.40
3418;DHT22;68007;51.312;12.372;2023-07-13T15:02:16;26.80;40.30
3418;DHT22;68007;51.312;12.372;2023-07-13T15:04:44;26.80;39.80
3418;DHT22;68007;51.312;12.372;2023-07-13T15:07:12;26.70;39.80
3418;DHT22;68007;51.312;12.372;2023-07-13T15:09:41;26.60;40.60
3418;DHT22;68007;51.312;12.372;2023-07-13T15:12:09;26.60;40.40
3418;DHT22;68007;51.312;12.372;2023-07-13T15:14:37;26.60;40.10
3418;DHT22;68007;51.312;12.372;2023-07-13T15:17:05;26.60;41.10
3418;DHT22;68007;51.312;12.372;2023-07-13T15:19:35;26.60;40.40
3418;DHT22;68007;51.312;12.372;2023-07-13T15:22:03;26.60;40.60
3418;DHT22;68007;51.312;12.372;2023-07-13T15:24:32;26.60;40.50
3418;DHT22;68007;51.312;12.372;2023-07-13T15:26:59;26.60;40.00
3418;DHT22;68007;51.312;12.372;2023-07-13T15:29:27;26.50;39.90
3418;DHT22;68007;51.312;12.372;2023-07-13T15:31:54;26.50;40.10
3418;DHT22;68007;51.312;12.372;2023-07-13T15:34:24;26.70;40.90
3418;DHT22;68007;51.312;12.372;2023-07-13T15:36:54;26.80;40.60
3418;DHT22;68007;51.312;12.372;2023-07-13T15:39:22;26.70;41.00
3418;DHT22;68007;51.312;12.372;2023-07-13T15:41:51;26.60;40.70
3418;DHT22;68007;51.312;12.372;2023-07-13T15:44:26;26.60;40.90
3418;DHT22;68007;51.312;12.372;2023-07-13T15:46:55;26.60;40.70
3418;DHT22;68007;51.312;12.372;2023-07-13T15:49:22;26.60;40.90